createdAt,value
2022-07-25T00:00:21.097Z,45.83
2022-07-25T00:03:23.992Z,45.95
2022-07-25T00:06:26.847Z,46.01
2022-07-25T00:09:29.753Z,45.84
2022-07-25T00:12:32.472Z,46.10
2022-07-25T00:15:35.532Z,45.60
2022-07-25T00:18:38.238Z,46.07
2022-07-25T00:21:41.199Z,46.00
2022-07-25T00:24:43.738Z,46.23
2022-07-25T00:27:46.639Z,46.43
2022-07-25T00:30:50.005Z,47.29
2022-07-25T00:33:52.991Z,47.71
2022-07-25T00:36:55.639Z,48.26
2022-07-25T00:39:58.636Z,49.77
2022-07-25T00:43:01.410Z,49.19
2022-07-25T00:46:04.396Z,49.48
2022-07-25T00:49:07.466Z,50.89
2022-07-25T00:52:10.565Z,50.16
2022-07-25T00:55:13.693Z,50.15
2022-07-25T00:58:16.673Z,50.99
2022-07-25T01:01:19.307Z,51.71
2022-07-25T01:04:22.457Z,51.73
2022-07-25T01:07:26.060Z,51.88
2022-07-25T01:10:33.585Z,52.28
2022-07-25T01:13:36.242Z,52.14
2022-07-25T01:16:41.259Z,52.90
2022-07-25T01:19:44.030Z,53.27
2022-07-25T01:22:47.690Z,53.11
2022-07-25T01:25:50.245Z,53.67
2022-07-25T01:28:53.069Z,53.95
2022-07-25T01:31:55.728Z,54.12
2022-07-25T01:34:58.581Z,54.66
2022-07-25T01:38:01.170Z,55.06
2022-07-25T01:41:04.240Z,54.86
2022-07-25T01:44:07.305Z,54.75
2022-07-25T01:47:10.543Z,54.55
2022-07-25T01:50:13.160Z,54.46
2022-07-25T01:53:16.103Z,54.89
2022-07-25T01:56:19.418Z,55.13
2022-07-25T01:59:25.420Z,55.40
2022-07-25T02:02:28.327Z,55.18
2022-07-25T02:05:31.309Z,55.28
2022-07-25T02:08:34.635Z,55.65
2022-07-25T02:11:37.481Z,55.92
2022-07-25T02:14:40.105Z,56.03
2022-07-25T02:17:42.957Z,56.11
2022-07-25T02:20:45.628Z,56.40
2022-07-25T02:23:48.652Z,56.50
2022-07-25T02:26:51.240Z,56.92
2022-07-25T02:29:54.134Z,57.16
2022-07-25T02:32:56.750Z,57.40
2022-07-25T02:35:59.605Z,57.80
2022-07-25T02:39:02.567Z,58.01
2022-07-25T02:42:07.391Z,58.45
2022-07-25T02:45:10.181Z,58.33
2022-07-25T02:48:13.613Z,58.70
2022-07-25T02:51:16.209Z,58.28
2022-07-25T02:54:20.174Z,58.53
2022-07-25T02:57:22.789Z,58.91
2022-07-25T03:00:25.822Z,58.48
2022-07-25T03:03:28.428Z,58.23
2022-07-25T03:06:31.615Z,58.26
2022-07-25T03:09:34.200Z,57.62
2022-07-25T03:12:37.872Z,58.28
2022-07-25T03:15:40.578Z,58.48
2022-07-25T03:18:43.653Z,58.88
2022-07-25T03:21:46.309Z,59.11
2022-07-25T03:24:49.335Z,59.19
2022-07-25T03:27:51.914Z,59.23
2022-07-25T03:30:54.815Z,59.41
2022-07-25T03:33:57.369Z,59.36
2022-07-25T03:37:00.568Z,58.96
2022-07-25T03:40:03.980Z,59.24
2022-07-25T03:43:07.082Z,59.10
2022-07-25T03:46:09.789Z,59.34
2022-07-25T03:49:12.808Z,59.73
2022-07-25T03:52:15.383Z,59.79
2022-07-25T03:55:18.196Z,59.78
2022-07-25T03:58:21.084Z,60.15
2022-07-25T04:01:24.091Z,60.13
2022-07-25T04:04:29.411Z,60.27
2022-07-25T04:07:32.007Z,60.20
2022-07-25T04:10:35.004Z,59.39
2022-07-25T04:13:37.756Z,60.53
2022-07-25T04:16:40.824Z,61.00
2022-07-25T04:19:43.375Z,61.22
2022-07-25T04:22:47.271Z,61.32
2022-07-25T04:25:49.909Z,62.01
2022-07-25T04:28:52.790Z,61.68
2022-07-25T04:31:55.430Z,62.27
2022-07-25T04:34:58.490Z,62.03
2022-07-25T04:38:01.694Z,62.16
2022-07-25T04:41:04.984Z,61.96
2022-07-25T04:44:09.093Z,60.77
2022-07-25T04:47:12.311Z,60.54
2022-07-25T04:50:15.668Z,59.54
2022-07-25T04:53:18.510Z,59.24
2022-07-25T04:56:21.097Z,59.10
2022-07-25T04:59:24.310Z,58.58
2022-07-25T05:02:26.986Z,56.76
2022-07-25T05:05:30.033Z,54.79
2022-07-25T05:08:32.646Z,54.13
2022-07-25T05:11:36.077Z,53.50
2022-07-25T05:14:38.766Z,52.65
2022-07-25T05:17:41.952Z,52.17
2022-07-25T05:20:44.659Z,54.49
2022-07-25T05:23:47.544Z,55.32
2022-07-25T05:26:50.508Z,55.77
2022-07-25T05:29:53.578Z,56.02
2022-07-25T05:32:56.088Z,55.67
2022-07-25T05:35:58.965Z,55.51
2022-07-25T05:39:02.039Z,55.05
2022-07-25T05:42:05.464Z,54.35
2022-07-25T05:45:08.597Z,54.31
2022-07-25T05:48:11.584Z,53.12
2022-07-25T05:51:14.149Z,52.88
2022-07-25T05:54:17.075Z,51.61
2022-07-25T05:57:19.763Z,51.15
2022-07-25T06:00:22.683Z,50.40
2022-07-25T06:03:25.639Z,50.41
2022-07-25T06:06:28.480Z,49.55
2022-07-25T06:09:32.078Z,49.16
2022-07-25T06:12:36.722Z,48.31
2022-07-25T06:15:39.889Z,46.19
2022-07-25T06:18:42.586Z,46.18
2022-07-25T06:21:45.402Z,44.87
2022-07-25T06:24:47.946Z,44.65
2022-07-25T06:27:50.783Z,42.92
2022-07-25T06:30:53.397Z,43.25
2022-07-25T06:33:56.335Z,43.10
2022-07-25T06:36:58.967Z,41.77
2022-07-25T06:40:01.861Z,41.60
2022-07-25T06:43:04.496Z,41.02
2022-07-25T06:46:07.572Z,40.58
2022-07-25T06:49:10.656Z,39.99
2022-07-25T06:52:13.623Z,39.59
2022-07-25T06:55:16.435Z,39.08
2022-07-25T06:58:19.344Z,37.88
2022-07-25T07:01:25.677Z,37.10
2022-07-25T07:04:28.562Z,36.71
2022-07-25T07:07:31.197Z,36.58
2022-07-25T07:10:34.240Z,35.81
2022-07-25T07:13:36.838Z,35.93
2022-07-25T07:16:41.445Z,35.35
2022-07-25T07:19:45.861Z,34.48
2022-07-25T07:22:49.348Z,34.75
2022-07-25T07:25:52.548Z,34.49
2022-07-25T07:28:56.080Z,34.58
2022-07-25T07:31:58.699Z,34.88
2022-07-25T07:35:01.622Z,34.43
2022-07-25T07:38:04.277Z,33.90
2022-07-25T07:41:07.914Z,34.00
2022-07-25T07:44:10.564Z,33.84
2022-07-25T07:47:14.522Z,33.14
2022-07-25T07:50:19.263Z,33.29
2022-07-25T07:53:22.262Z,32.53
2022-07-25T07:56:25.029Z,32.85
2022-07-25T07:59:28.079Z,31.88
2022-07-25T08:02:30.698Z,31.92
2022-07-25T08:05:39.426Z,32.21
2022-07-25T08:08:42.105Z,31.37
2022-07-25T08:11:45.115Z,31.69
2022-07-25T08:14:47.810Z,31.29
2022-07-25T08:17:51.466Z,31.15
2022-07-25T08:20:54.702Z,30.86
2022-07-25T08:23:57.688Z,30.34
2022-07-25T08:27:00.721Z,30.93
2022-07-25T08:30:05.906Z,30.25
2022-07-25T08:33:13.442Z,29.36
2022-07-25T08:36:16.642Z,30.14
2022-07-25T08:39:19.316Z,28.95
2022-07-25T08:42:22.234Z,28.51
2022-07-25T08:45:26.015Z,28.65
2022-07-25T08:48:29.825Z,28.36
2022-07-25T08:51:33.446Z,28.24
2022-07-25T08:54:36.973Z,28.14
2022-07-25T08:57:43.634Z,28.09
2022-07-25T09:00:46.929Z,28.42
2022-07-25T09:03:49.574Z,28.38
2022-07-25T09:06:52.538Z,27.67
2022-07-25T09:09:55.234Z,27.70
2022-07-25T09:13:07.930Z,27.26
2022-07-25T09:16:10.695Z,28.73
2022-07-25T09:19:15.055Z,28.54
2022-07-25T09:22:17.722Z,27.04
2022-07-25T09:25:29.942Z,26.83
2022-07-25T09:28:33.527Z,28.04
2022-07-25T09:31:36.564Z,26.89
2022-07-25T09:34:41.924Z,26.35
2022-07-25T09:37:44.769Z,26.15
2022-07-25T09:41:13.722Z,25.72
2022-07-25T09:44:36.621Z,25.29
2022-07-25T09:47:51.540Z,24.54
2022-07-25T09:50:54.981Z,24.43
2022-07-25T09:53:57.628Z,24.65
2022-07-25T09:57:00.573Z,26.10
2022-07-25T10:00:05.354Z,24.34
2022-07-25T10:03:29.850Z,24.29
2022-07-25T10:07:12.397Z,25.13
2022-07-25T10:10:41.556Z,25.19
2022-07-25T10:13:44.562Z,25.33
2022-07-25T10:16:48.600Z,24.91
2022-07-25T10:19:56.764Z,25.66
2022-07-25T10:23:05.647Z,24.01
2022-07-25T10:26:19.595Z,23.42
2022-07-25T10:29:22.429Z,22.59
2022-07-25T10:32:26.702Z,24.03
2022-07-25T10:35:30.137Z,23.27
2022-07-25T10:38:33.334Z,22.94
2022-07-25T10:41:39.704Z,22.54
2022-07-25T10:44:46.538Z,23.54
2022-07-25T10:47:55.016Z,22.68
2022-07-25T10:51:02.856Z,22.50
2022-07-25T10:54:16.533Z,22.55
2022-07-25T10:57:19.453Z,22.87
2022-07-25T11:00:22.010Z,22.50
2022-07-25T11:03:25.010Z,23.43
2022-07-25T11:06:35.229Z,23.87
2022-07-25T11:09:39.471Z,23.57
2022-07-25T11:12:45.168Z,24.07
2022-07-25T11:15:48.684Z,23.59
2022-07-25T11:18:51.248Z,23.79
2022-07-25T11:21:56.239Z,23.75
2022-07-25T11:24:59.664Z,22.92
2022-07-25T11:28:03.788Z,22.98
2022-07-25T11:31:06.535Z,22.84
2022-07-25T11:34:09.640Z,22.88
2022-07-25T11:37:14.429Z,23.43
2022-07-25T11:40:18.668Z,22.22
2022-07-25T11:43:22.886Z,21.78
2022-07-25T11:46:26.132Z,21.56
2022-07-25T11:49:29.012Z,21.28
2022-07-25T11:52:34.705Z,21.42
2022-07-25T11:55:42.950Z,22.39
2022-07-25T11:59:00.787Z,22.43
2022-07-25T12:02:03.540Z,21.78
2022-07-25T12:05:12.092Z,22.08
2022-07-25T12:08:16.457Z,22.40
2022-07-25T12:11:21.928Z,22.09
2022-07-25T12:14:24.537Z,22.29
2022-07-25T12:17:27.363Z,21.34
2022-07-25T12:20:32.515Z,21.60
2022-07-25T12:23:35.562Z,20.71
2022-07-25T12:26:38.096Z,21.75
2022-07-25T12:29:40.990Z,20.44
2022-07-25T12:32:43.987Z,20.27
2022-07-25T12:35:47.370Z,20.37
2022-07-25T12:38:50.027Z,20.27
2022-07-25T12:41:53.033Z,20.18
2022-07-25T12:44:56.399Z,19.39
2022-07-25T12:47:59.362Z,19.75
2022-07-25T12:51:01.987Z,19.53
2022-07-25T12:54:05.355Z,19.18
2022-07-25T12:57:08.186Z,18.51
2022-07-25T13:00:14.049Z,19.82
2022-07-25T13:03:16.914Z,19.59
2022-07-25T13:06:20.890Z,19.33
2022-07-25T13:09:23.980Z,18.92
2022-07-25T13:12:27.647Z,18.03
2022-07-25T13:15:30.532Z,18.09
2022-07-25T13:18:34.507Z,18.33
2022-07-25T13:21:38.964Z,18.13
2022-07-25T13:24:41.955Z,17.50
2022-07-25T13:27:44.514Z,17.49
2022-07-25T13:30:47.915Z,17.36
2022-07-25T13:33:50.971Z,17.07
2022-07-25T13:36:53.913Z,17.11
2022-07-25T13:39:56.604Z,17.55
2022-07-25T13:42:59.467Z,17.50
2022-07-25T13:46:02.760Z,17.64
2022-07-25T13:49:06.107Z,17.96
2022-07-25T13:52:09.103Z,18.40
2022-07-25T13:55:12.356Z,17.78
2022-07-25T13:58:15.343Z,17.37
2022-07-25T14:01:18.364Z,18.02
2022-07-25T14:04:21.293Z,17.65
2022-07-25T14:07:23.847Z,17.23
2022-07-25T14:10:27.139Z,17.46
2022-07-25T14:13:29.669Z,17.40
2022-07-25T14:16:34.209Z,17.26
2022-07-25T14:19:36.967Z,16.45
2022-07-25T14:22:42.103Z,17.12
2022-07-25T14:25:44.978Z,16.76
2022-07-25T14:28:48.101Z,16.94
2022-07-25T14:31:50.729Z,16.76
2022-07-25T14:34:53.774Z,16.33
2022-07-25T14:37:56.510Z,16.66
2022-07-25T14:40:59.902Z,16.63
2022-07-25T14:44:02.437Z,16.68
2022-07-25T14:47:11.853Z,16.26
2022-07-25T14:50:15.243Z,16.88
2022-07-25T14:53:18.557Z,16.27
2022-07-25T14:56:21.201Z,17.44
2022-07-25T14:59:24.617Z,17.46
2022-07-25T15:02:28.125Z,17.14
2022-07-25T15:05:30.970Z,17.12
2022-07-25T15:08:33.573Z,16.76
2022-07-25T15:11:36.566Z,16.66
2022-07-25T15:14:39.224Z,16.59
2022-07-25T15:17:42.147Z,16.82
2022-07-25T15:20:44.786Z,16.45
2022-07-25T15:23:47.624Z,16.63
2022-07-25T15:26:50.158Z,16.54
2022-07-25T15:29:53.091Z,16.43
2022-07-25T15:33:02.402Z,16.19
2022-07-25T15:36:05.707Z,15.97
2022-07-25T15:39:09.020Z,16.49
2022-07-25T15:42:12.404Z,17.10
2022-07-25T15:45:32.374Z,16.97
2022-07-25T15:48:35.730Z,16.98
2022-07-25T15:51:38.344Z,17.43
2022-07-25T15:54:41.250Z,17.29
2022-07-25T15:57:43.862Z,17.09
2022-07-25T16:00:46.872Z,17.10
2022-07-25T16:03:49.808Z,16.79
2022-07-25T16:06:52.461Z,17.41
2022-07-25T16:09:56.694Z,17.49
2022-07-25T16:12:59.792Z,17.19
2022-07-25T16:16:05.364Z,17.06
2022-07-25T16:19:09.388Z,17.51
2022-07-25T16:22:12.712Z,17.34
2022-07-25T16:25:15.617Z,17.99
2022-07-25T16:28:18.784Z,17.80
2022-07-25T16:31:22.023Z,17.86
2022-07-25T16:34:29.094Z,17.95
2022-07-25T16:37:31.908Z,18.33
2022-07-25T16:40:35.702Z,17.88
2022-07-25T16:43:38.273Z,18.06
2022-07-25T16:46:41.567Z,18.02
2022-07-25T16:49:44.209Z,18.55
2022-07-25T16:52:47.126Z,18.75
2022-07-25T16:55:49.785Z,18.68
2022-07-25T16:58:53.170Z,18.83
2022-07-25T17:01:55.756Z,18.77
2022-07-25T17:04:59.355Z,19.05
2022-07-25T17:08:02.046Z,19.39
2022-07-25T17:11:05.620Z,19.68
2022-07-25T17:14:08.167Z,19.60
2022-07-25T17:17:11.152Z,20.13
2022-07-25T17:20:14.558Z,20.18
2022-07-25T17:23:17.442Z,20.61
2022-07-25T17:26:25.913Z,20.94
2022-07-25T17:29:29.144Z,20.76
2022-07-25T17:32:31.733Z,21.20
2022-07-25T17:35:34.648Z,21.60
2022-07-25T17:38:37.875Z,21.46
2022-07-25T17:41:40.967Z,21.24
2022-07-25T17:44:44.272Z,21.37
2022-07-25T17:47:47.197Z,21.59
2022-07-25T17:50:49.917Z,21.38
2022-07-25T17:53:52.887Z,22.16
2022-07-25T17:56:55.573Z,22.25
2022-07-25T17:59:58.493Z,22.53
2022-07-25T18:03:01.411Z,22.65
2022-07-25T18:06:04.931Z,23.53
2022-07-25T18:09:08.413Z,24.63
2022-07-25T18:12:11.307Z,24.87
2022-07-25T18:15:14.986Z,25.60
2022-07-25T18:18:20.600Z,25.72
2022-07-25T18:21:24.534Z,25.87
2022-07-25T18:24:29.357Z,26.16
2022-07-25T18:27:32.070Z,26.64
2022-07-25T18:30:34.986Z,27.74
2022-07-25T18:33:37.716Z,28.07
2022-07-25T18:36:41.657Z,28.78
2022-07-25T18:39:44.260Z,28.83
2022-07-25T18:42:47.368Z,28.97
2022-07-25T18:45:50.838Z,28.93
2022-07-25T18:48:53.965Z,29.95
2022-07-25T18:51:56.742Z,29.73
2022-07-25T18:54:59.554Z,30.04
2022-07-25T18:58:02.159Z,30.00
2022-07-25T19:01:05.217Z,30.77
2022-07-25T19:04:08.215Z,31.20
2022-07-25T19:07:11.324Z,31.39
2022-07-25T19:10:14.037Z,32.62
2022-07-25T19:13:39.058Z,31.90
2022-07-25T19:16:39.693Z,32.20
2022-07-25T19:19:42.653Z,32.74
2022-07-25T19:22:45.234Z,33.48
2022-07-25T19:25:48.090Z,33.77
2022-07-25T19:28:51.157Z,34.15
2022-07-25T19:31:54.240Z,34.48
2022-07-25T19:34:56.836Z,34.54
2022-07-25T19:37:59.795Z,34.89
2022-07-25T19:41:02.376Z,35.64
2022-07-25T19:44:05.826Z,34.81
2022-07-25T19:47:11.685Z,35.71
2022-07-25T19:50:14.909Z,35.92
2022-07-25T19:53:17.931Z,36.47
2022-07-25T19:56:21.079Z,36.38
2022-07-25T19:59:23.905Z,36.90
2022-07-25T20:02:27.001Z,37.26
2022-07-25T20:05:29.906Z,37.80
2022-07-25T20:08:32.831Z,37.98
2022-07-25T20:11:40.760Z,37.99
2022-07-25T20:14:43.770Z,38.53
2022-07-25T20:17:46.686Z,39.15
2022-07-25T20:20:49.277Z,39.49
2022-07-25T20:23:52.232Z,39.54
2022-07-25T20:26:54.969Z,39.54
2022-07-25T20:29:58.242Z,40.30
2022-07-25T20:33:00.822Z,39.73
2022-07-25T20:36:08.809Z,39.57
2022-07-25T20:39:11.497Z,39.15
2022-07-25T20:42:14.471Z,39.66
2022-07-25T20:45:17.187Z,39.92
2022-07-25T20:48:20.338Z,40.24
2022-07-25T20:51:22.876Z,40.83
2022-07-25T20:54:25.751Z,41.18
2022-07-25T20:57:28.312Z,40.75
2022-07-25T21:00:31.387Z,41.26
2022-07-25T21:03:35.035Z,41.44
2022-07-25T21:06:37.954Z,41.72
2022-07-25T21:09:40.576Z,42.07
2022-07-25T21:12:45.331Z,41.65
2022-07-25T21:15:47.925Z,41.85
2022-07-25T21:18:50.907Z,42.18
2022-07-25T21:21:53.565Z,42.91
2022-07-25T21:24:56.512Z,42.66
2022-07-25T21:27:59.141Z,42.85
2022-07-25T21:31:01.974Z,42.55
2022-07-25T21:34:05.037Z,42.65
2022-07-25T21:37:08.208Z,42.80
2022-07-25T21:40:11.149Z,43.19
2022-07-25T21:43:14.124Z,44.06
2022-07-25T21:46:16.866Z,44.13
2022-07-25T21:49:41.422Z,44.02
2022-07-25T21:52:45.041Z,44.14
2022-07-25T21:55:47.875Z,44.52
2022-07-25T21:58:52.649Z,45.18
2022-07-25T22:01:55.500Z,45.27
2022-07-25T22:04:58.489Z,45.74
2022-07-25T22:08:01.015Z,45.49
2022-07-25T22:11:15.721Z,45.51
2022-07-25T22:14:27.150Z,46.11
2022-07-25T22:17:48.844Z,45.89
2022-07-25T22:20:52.435Z,46.10
2022-07-25T22:23:55.307Z,46.30
2022-07-25T22:26:57.931Z,46.45
2022-07-25T22:30:01.128Z,46.98
2022-07-25T22:33:03.764Z,47.22
2022-07-25T22:36:07.329Z,47.26
2022-07-25T22:39:11.116Z,47.86
2022-07-25T22:42:16.337Z,47.60
2022-07-25T22:45:20.113Z,47.73
2022-07-25T22:48:22.996Z,48.00
2022-07-25T22:51:26.668Z,48.14
2022-07-25T22:54:29.966Z,48.48
2022-07-25T22:57:37.193Z,48.34
2022-07-25T23:00:40.779Z,48.63
2022-07-25T23:03:43.486Z,48.03
2022-07-25T23:06:46.593Z,48.18
2022-07-25T23:09:49.175Z,48.38
2022-07-25T23:12:52.122Z,48.17
2022-07-25T23:15:54.718Z,48.20
2022-07-25T23:18:57.757Z,47.95
2022-07-25T23:22:00.357Z,48.37
2022-07-25T23:25:03.274Z,48.61
2022-07-25T23:28:06.169Z,48.56
2022-07-25T23:31:09.179Z,48.77
2022-07-25T23:34:12.410Z,49.38
2022-07-25T23:37:15.425Z,49.98
2022-07-25T23:40:18.019Z,50.28
2022-07-25T23:43:26.756Z,50.31
2022-07-25T23:46:44.488Z,49.99
2022-07-25T23:49:47.459Z,50.50
2022-07-25T23:52:50.075Z,51.47
2022-07-25T23:55:52.937Z,51.74
2022-07-25T23:58:55.484Z,51.36
